sensor_id;sensor_type;location;lat;lon;timestamp;pressure;altitude;pressure_sealevel;temperature;humidity
9853;BME280;4965;43.238;27.864;2022-10-16T00:01:41;100972.22;;;10.26;100.00
9853;BME280;4965;43.238;27.864;2022-10-16T00:04:08;100992.88;;;10.45;100.00
9853;BME280;4965;43.238;27.864;2022-10-16T00:06:35;100902.50;;;9.78;100.00
9853;BME280;4965;43.238;27.864;2022-10-16T00:09:02;100874.00;;;9.71;100.00
9853;BME280;4965;43.238;27.864;2022-10-16T00:11:33;100987.06;;;10.40;100.00
9853;BME280;4965;43.238;27.864;2022-10-16T00:14:03;100993.19;;;10.40;100.00
9853;BME280;4965;43.238;27.864;2022-10-16T00:16:31;101006.00;;;10.34;100.00
9853;BME280;4965;43.238;27.864;2022-10-16T00:18:58;101003.69;;;10.29;100.00
9853;BME280;4965;43.238;27.864;2022-10-16T00:21:27;100993.34;;;10.26;100.00
9853;BME280;4965;43.238;27.864;2022-10-16T00:23:56;100998.00;;;10.23;100.00
9853;BME280;4965;43.238;27.864;2022-10-16T00:26:25;100995.34;;;10.23;100.00
9853;BME280;4965;43.238;27.864;2022-10-16T00:28:54;100998.31;;;10.18;100.00
9853;BME280;4965;43.238;27.864;2022-10-16T00:31:22;101007.38;;;10.14;100.00
9853;BME280;4965;43.238;27.864;2022-10-16T00:33:49;100956.06;;;9.80;100.00
9853;BME280;4965;43.238;27.864;2022-10-16T00:36:18;100967.66;;;9.90;100.00
9853;BME280;4965;43.238;27.864;2022-10-16T00:38:46;100967.66;;;9.90;100.00
9853;BME280;4965;43.238;27.864;2022-10-16T00:41:15;101005.63;;;10.15;100.00
9853;BME280;4965;43.238;27.864;2022-10-16T00:43:44;100971.88;;;9.93;100.00
9853;BME280;4965;43.238;27.864;2022-10-16T00:46:16;100996.59;;;10.04;100.00
9853;BME280;4965;43.238;27.864;2022-10-16T00:48:47;100975.59;;;10.03;100.00
9853;BME280;4965;43.238;27.864;2022-10-16T00:51:15;100982.44;;;10.05;100.00
9853;BME280;4965;43.238;27.864;2022-10-16T00:53:44;100977.16;;;10.05;100.00
9853;BME280;4965;43.238;27.864;2022-10-16T00:56:12;100922.69;;;9.67;100.00
9853;BME280;4965;43.238;27.864;2022-10-16T00:58:39;100972.84;;;9.92;100.00
9853;BME280;4965;43.238;27.864;2022-10-16T01:01:06;100948.22;;;9.79;100.00
9853;BME280;4965;43.238;27.864;2022-10-16T01:03:36;100997.66;;;10.02;100.00
9853;BME280;4965;43.238;27.864;2022-10-16T01:06:16;100991.84;;;9.97;100.00
9853;BME280;4965;43.238;27.864;2022-10-16T01:08:56;101000.91;;;9.93;100.00
9853;BME280;4965;43.238;27.864;2022-10-16T01:11:30;100988.78;;;9.90;100.00
9853;BME280;4965;43.238;27.864;2022-10-16T01:14:05;101001.13;;;9.90;100.00
9853;BME280;4965;43.238;27.864;2022-10-16T01:16:35;101004.53;;;9.92;100.00
9853;BME280;4965;43.238;27.864;2022-10-16T01:19:11;100997.56;;;9.91;100.00
9853;BME280;4965;43.238;27.864;2022-10-16T01:21:41;101018.13;;;9.86;100.00
9853;BME280;4965;43.238;27.864;2022-10-16T01:24:17;101011.47;;;9.93;100.00
9853;BME280;4965;43.238;27.864;2022-10-16T01:27:02;101032.19;;;9.86;100.00
9853;BME280;4965;43.238;27.864;2022-10-16T01:29:33;100916.84;;;9.24;100.00
9853;BME280;4965;43.238;27.864;2022-10-16T01:32:07;101005.03;;;9.59;100.00
9853;BME280;4965;43.238;27.864;2022-10-16T01:34:41;101007.69;;;9.72;100.00
9853;BME280;4965;43.238;27.864;2022-10-16T01:37:12;101019.63;;;9.65;100.00
9853;BME280;4965;43.238;27.864;2022-10-16T01:39:44;101030.91;;;9.67;100.00
9853;BME280;4965;43.238;27.864;2022-10-16T01:42:17;100947.94;;;9.06;100.00
9853;BME280;4965;43.238;27.864;2022-10-16T01:44:46;100961.22;;;9.04;100.00
9853;BME280;4965;43.238;27.864;2022-10-16T01:47:14;101006.97;;;9.30;100.00
9853;BME280;4965;43.238;27.864;2022-10-16T01:49:44;101023.03;;;9.40;100.00
9853;BME280;4965;43.238;27.864;2022-10-16T01:52:14;100980.13;;;9.11;100.00
9853;BME280;4965;43.238;27.864;2022-10-16T01:54:46;101018.41;;;9.43;100.00
9853;BME280;4965;43.238;27.864;2022-10-16T01:57:16;100974.94;;;9.09;100.00
9853;BME280;4965;43.238;27.864;2022-10-16T01:59:47;100971.47;;;9.09;100.00
9853;BME280;4965;43.238;27.864;2022-10-16T02:02:17;101016.19;;;9.37;100.00
9853;BME280;4965;43.238;27.864;2022-10-16T02:04:47;101001.72;;;9.30;100.00
9853;BME280;4965;43.238;27.864;2022-10-16T02:07:16;101016.91;;;9.39;100.00
9853;BME280;4965;43.238;27.864;2022-10-16T02:09:43;100969.25;;;9.16;100.00
9853;BME280;4965;43.238;27.864;2022-10-16T02:12:15;101010.78;;;9.39;100.00
9853;BME280;4965;43.238;27.864;2022-10-16T02:14:43;101013.13;;;9.43;100.00
9853;BME280;4965;43.238;27.864;2022-10-16T02:17:12;100991.84;;;9.20;100.00
9853;BME280;4965;43.238;27.864;2022-10-16T02:19:40;101005.50;;;9.26;100.00
9853;BME280;4965;43.238;27.864;2022-10-16T02:22:14;101003.50;;;9.30;100.00
9853;BME280;4965;43.238;27.864;2022-10-16T02:24:47;101030.66;;;9.44;100.00
9853;BME280;4965;43.238;27.864;2022-10-16T02:27:25;101041.84;;;9.48;100.00
9853;BME280;4965;43.238;27.864;2022-10-16T02:29:58;101025.38;;;9.44;100.00
9853;BME280;4965;43.238;27.864;2022-10-16T02:32:30;100977.59;;;9.09;100.00
9853;BME280;4965;43.238;27.864;2022-10-16T02:35:00;100995.59;;;9.03;100.00
9853;BME280;4965;43.238;27.864;2022-10-16T02:37:28;101021.63;;;9.22;100.00
9853;BME280;4965;43.238;27.864;2022-10-16T02:39:56;101036.09;;;9.29;100.00
9853;BME280;4965;43.238;27.864;2022-10-16T02:42:29;100992.75;;;9.06;100.00
9853;BME280;4965;43.238;27.864;2022-10-16T02:44:59;101003.09;;;9.09;100.00
9853;BME280;4965;43.238;27.864;2022-10-16T02:47:26;101047.44;;;9.17;100.00
9853;BME280;4965;43.238;27.864;2022-10-16T02:49:53;100991.16;;;8.77;100.00
9853;BME280;4965;43.238;27.864;2022-10-16T02:52:20;101039.72;;;9.14;100.00
9853;BME280;4965;43.238;27.864;2022-10-16T02:54:47;101018.00;;;8.83;100.00
9853;BME280;4965;43.238;27.864;2022-10-16T02:57:13;101042.16;;;9.17;100.00
9853;BME280;4965;43.238;27.864;2022-10-16T02:59:42;101014.84;;;8.91;100.00
9853;BME280;4965;43.238;27.864;2022-10-16T03:02:09;101040.59;;;9.14;100.00
9853;BME280;4965;43.238;27.864;2022-10-16T03:04:36;100991.28;;;8.75;100.00
9853;BME280;4965;43.238;27.864;2022-10-16T03:07:03;101022.91;;;9.02;100.00
9853;BME280;4965;43.238;27.864;2022-10-16T03:09:31;101054.25;;;9.06;100.00
9853;BME280;4965;43.238;27.864;2022-10-16T03:11:58;101059.41;;;9.08;100.00
9853;BME280;4965;43.238;27.864;2022-10-16T03:14:25;101042.75;;;9.07;100.00
9853;BME280;4965;43.238;27.864;2022-10-16T03:16:53;101069.69;;;9.13;100.00
9853;BME280;4965;43.238;27.864;2022-10-16T03:19:20;101033.16;;;9.06;100.00
9853;BME280;4965;43.238;27.864;2022-10-16T03:21:48;101050.94;;;9.17;100.00
9853;BME280;4965;43.238;27.864;2022-10-16T03:24:15;101030.06;;;9.00;100.00
9853;BME280;4965;43.238;27.864;2022-10-16T03:26:41;101037.38;;;9.09;100.00
9853;BME280;4965;43.238;27.864;2022-10-16T03:29:11;101045.50;;;9.06;100.00
9853;BME280;4965;43.238;27.864;2022-10-16T03:31:38;101054.06;;;9.09;100.00
9853;BME280;4965;43.238;27.864;2022-10-16T03:34:07;101064.69;;;9.08;100.00
9853;BME280;4965;43.238;27.864;2022-10-16T03:36:34;101062.81;;;9.10;100.00
9853;BME280;4965;43.238;27.864;2022-10-16T03:39:01;101045.34;;;8.95;100.00
9853;BME280;4965;43.238;27.864;2022-10-16T03:41:28;100974.66;;;8.46;100.00
9853;BME280;4965;43.238;27.864;2022-10-16T03:43:55;101050.84;;;8.92;100.00
9853;BME280;4965;43.238;27.864;2022-10-16T03:46:22;101016.78;;;8.75;100.00
9853;BME280;4965;43.238;27.864;2022-10-16T03:48:49;101058.25;;;8.99;100.00
9853;BME280;4965;43.238;27.864;2022-10-16T03:51:17;101045.00;;;8.87;100.00
9853;BME280;4965;43.238;27.864;2022-10-16T03:53:44;101049.22;;;8.89;100.00
9853;BME280;4965;43.238;27.864;2022-10-16T03:56:11;101018.13;;;8.68;100.00
9853;BME280;4965;43.238;27.864;2022-10-16T03:58:39;101031.75;;;8.74;100.00
9853;BME280;4965;43.238;27.864;2022-10-16T04:01:07;101052.50;;;8.93;100.00
9853;BME280;4965;43.238;27.864;2022-10-16T04:03:34;101059.56;;;8.92;100.00
9853;BME280;4965;43.238;27.864;2022-10-16T04:06:01;101079.06;;;8.90;100.00
9853;BME280;4965;43.238;27.864;2022-10-16T04:08:30;101060.03;;;8.85;100.00
9853;BME280;4965;43.238;27.864;2022-10-16T04:10:59;101004.88;;;8.55;100.00
9853;BME280;4965;43.238;27.864;2022-10-16T04:13:26;101046.22;;;8.81;100.00
9853;BME280;4965;43.238;27.864;2022-10-16T04:15:53;101021.88;;;8.64;100.00
9853;BME280;4965;43.238;27.864;2022-10-16T04:18:20;101072.56;;;8.95;100.00
9853;BME280;4965;43.238;27.864;2022-10-16T04:20:53;101070.03;;;8.94;100.00
9853;BME280;4965;43.238;27.864;2022-10-16T04:23:21;101067.81;;;9.00;100.00
9853;BME280;4965;43.238;27.864;2022-10-16T04:25:50;101028.91;;;8.77;100.00
9853;BME280;4965;43.238;27.864;2022-10-16T04:28:17;101050.00;;;8.77;100.00
9853;BME280;4965;43.238;27.864;2022-10-16T04:30:44;101015.00;;;8.75;100.00
9853;BME280;4965;43.238;27.864;2022-10-16T04:33:11;101042.91;;;8.92;100.00
9853;BME280;4965;43.238;27.864;2022-10-16T04:35:39;101058.91;;;9.03;100.00
9853;BME280;4965;43.238;27.864;2022-10-16T04:38:06;101033.84;;;8.96;100.00
9853;BME280;4965;43.238;27.864;2022-10-16T04:40:33;101030.47;;;8.94;100.00
9853;BME280;4965;43.238;27.864;2022-10-16T04:43:03;101013.41;;;8.73;100.00
9853;BME280;4965;43.238;27.864;2022-10-16T04:45:30;101071.63;;;9.23;100.00
9853;BME280;4965;43.238;27.864;2022-10-16T04:47:57;101069.25;;;9.33;100.00
9853;BME280;4965;43.238;27.864;2022-10-16T04:50:24;101072.38;;;9.25;100.00
9853;BME280;4965;43.238;27.864;2022-10-16T04:52:51;101044.25;;;9.12;100.00
9853;BME280;4965;43.238;27.864;2022-10-16T04:55:18;101076.22;;;9.34;100.00
9853;BME280;4965;43.238;27.864;2022-10-16T04:57:45;101035.72;;;9.47;100.00
9853;BME280;4965;43.238;27.864;2022-10-16T05:00:14;101021.34;;;9.39;100.00
9853;BME280;4965;43.238;27.864;2022-10-16T05:02:40;101081.81;;;9.81;100.00
9853;BME280;4965;43.238;27.864;2022-10-16T05:05:08;101059.22;;;9.65;100.00
9853;BME280;4965;43.238;27.864;2022-10-16T05:07:34;101055.72;;;9.64;100.00
9853;BME280;4965;43.238;27.864;2022-10-16T05:10:02;101091.78;;;9.90;100.00
9853;BME280;4965;43.238;27.864;2022-10-16T05:12:29;101092.31;;;10.08;100.00
9853;BME280;4965;43.238;27.864;2022-10-16T05:14:56;101103.78;;;10.21;100.00
9853;BME280;4965;43.238;27.864;2022-10-16T05:17:25;101094.78;;;10.24;100.00
9853;BME280;4965;43.238;27.864;2022-10-16T05:19:52;101105.91;;;10.41;100.00
9853;BME280;4965;43.238;27.864;2022-10-16T05:22:19;101110.13;;;10.57;100.00
9853;BME280;4965;43.238;27.864;2022-10-16T05:24:47;101066.25;;;10.54;100.00
9853;BME280;4965;43.238;27.864;2022-10-16T05:27:14;101090.53;;;10.59;100.00
9853;BME280;4965;43.238;27.864;2022-10-16T05:29:44;101118.66;;;10.73;100.00
9853;BME280;4965;43.238;27.864;2022-10-16T05:32:12;101093.31;;;10.58;100.00
9853;BME280;4965;43.238;27.864;2022-10-16T05:34:41;101117.69;;;10.86;100.00
9853;BME280;4965;43.238;27.864;2022-10-16T05:37:08;101113.78;;;10.67;100.00
9853;BME280;4965;43.238;27.864;2022-10-16T05:39:35;101117.16;;;10.81;100.00
9853;BME280;4965;43.238;27.864;2022-10-16T05:42:02;101117.28;;;10.80;100.00
9853;BME280;4965;43.238;27.864;2022-10-16T05:44:29;101085.16;;;10.61;100.00
9853;BME280;4965;43.238;27.864;2022-10-16T05:46:56;101122.44;;;10.81;100.00
9853;BME280;4965;43.238;27.864;2022-10-16T05:49:23;101086.22;;;10.33;100.00
9853;BME280;4965;43.238;27.864;2022-10-16T05:51:52;101129.03;;;10.63;100.00
9853;BME280;4965;43.238;27.864;2022-10-16T05:54:18;101105.13;;;10.52;100.00
9853;BME280;4965;43.238;27.864;2022-10-16T05:56:45;101083.78;;;10.55;100.00
9853;BME280;4965;43.238;27.864;2022-10-16T05:59:12;101165.88;;;11.15;100.00
9853;BME280;4965;43.238;27.864;2022-10-16T06:01:39;101119.22;;;11.02;100.00
9853;BME280;4965;43.238;27.864;2022-10-16T06:04:06;101082.03;;;10.92;100.00
9853;BME280;4965;43.238;27.864;2022-10-16T06:06:33;101139.94;;;11.44;100.00
9853;BME280;4965;43.238;27.864;2022-10-16T06:09:03;101171.63;;;11.45;100.00
9853;BME280;4965;43.238;27.864;2022-10-16T06:11:32;101165.22;;;11.24;100.00
9853;BME280;4965;43.238;27.864;2022-10-16T06:14:01;101149.56;;;11.21;100.00
9853;BME280;4965;43.238;27.864;2022-10-16T06:16:32;101102.88;;;11.20;100.00
9853;BME280;4965;43.238;27.864;2022-10-16T06:19:00;101184.91;;;11.57;100.00
9853;BME280;4965;43.238;27.864;2022-10-16T06:21:28;101177.06;;;11.55;100.00
9853;BME280;4965;43.238;27.864;2022-10-16T06:23:56;101118.84;;;11.31;100.00
9853;BME280;4965;43.238;27.864;2022-10-16T06:26:26;101174.09;;;11.60;100.00
9853;BME280;4965;43.238;27.864;2022-10-16T06:28:54;101119.03;;;11.28;100.00
9853;BME280;4965;43.238;27.864;2022-10-16T06:31:22;101184.69;;;11.60;100.00
9853;BME280;4965;43.238;27.864;2022-10-16T06:33:53;101173.13;;;11.73;100.00
9853;BME280;4965;43.238;27.864;2022-10-16T06:36:21;101193.00;;;11.66;100.00
9853;BME280;4965;43.238;27.864;2022-10-16T06:38:49;101186.41;;;11.84;100.00
9853;BME280;4965;43.238;27.864;2022-10-16T06:41:17;101134.41;;;11.83;100.00
9853;BME280;4965;43.238;27.864;2022-10-16T06:43:47;101180.63;;;12.14;100.00
9853;BME280;4965;43.238;27.864;2022-10-16T06:46:15;101170.66;;;12.29;100.00
9853;BME280;4965;43.238;27.864;2022-10-16T06:48:43;101183.34;;;12.36;100.00
9853;BME280;4965;43.238;27.864;2022-10-16T06:51:12;101194.94;;;12.47;100.00
9853;BME280;4965;43.238;27.864;2022-10-16T06:53:41;101204.50;;;12.60;100.00
9853;BME280;4965;43.238;27.864;2022-10-16T06:56:09;101200.41;;;12.78;100.00
9853;BME280;4965;43.238;27.864;2022-10-16T06:58:37;101200.44;;;12.89;100.00
9853;BME280;4965;43.238;27.864;2022-10-16T07:01:06;101192.25;;;12.93;100.00
9853;BME280;4965;43.238;27.864;2022-10-16T07:03:35;101205.25;;;13.07;100.00
9853;BME280;4965;43.238;27.864;2022-10-16T07:06:03;101210.59;;;13.18;100.00
9853;BME280;4965;43.238;27.864;2022-10-16T07:08:31;101206.72;;;13.33;100.00
9853;BME280;4965;43.238;27.864;2022-10-16T07:10:59;101208.53;;;13.21;100.00
9853;BME280;4965;43.238;27.864;2022-10-16T07:13:27;101196.47;;;13.40;100.00
9853;BME280;4965;43.238;27.864;2022-10-16T07:15:54;101198.13;;;13.63;100.00
9853;BME280;4965;43.238;27.864;2022-10-16T07:18:22;101216.50;;;13.44;100.00
9853;BME280;4965;43.238;27.864;2022-10-16T07:20:52;101193.22;;;13.36;100.00
9853;BME280;4965;43.238;27.864;2022-10-16T07:23:19;101197.06;;;13.43;100.00
9853;BME280;4965;43.238;27.864;2022-10-16T07:25:53;101210.47;;;13.84;100.00
9853;BME280;4965;43.238;27.864;2022-10-16T07:28:20;101223.56;;;14.08;100.00
9853;BME280;4965;43.238;27.864;2022-10-16T07:30:48;101223.63;;;13.97;100.00
9853;BME280;4965;43.238;27.864;2022-10-16T07:33:14;101209.81;;;14.03;100.00
9853;BME280;4965;43.238;27.864;2022-10-16T07:35:49;101216.03;;;14.13;100.00
9853;BME280;4965;43.238;27.864;2022-10-16T07:38:17;101195.88;;;13.79;100.00
9853;BME280;4965;43.238;27.864;2022-10-16T07:40:44;101129.75;;;13.65;100.00
9853;BME280;4965;43.238;27.864;2022-10-16T07:43:11;101216.97;;;14.23;100.00
9853;BME280;4965;43.238;27.864;2022-10-16T07:45:46;101155.78;;;13.82;100.00
9853;BME280;4965;43.238;27.864;2022-10-16T07:48:14;101228.84;;;14.51;100.00
9853;BME280;4965;43.238;27.864;2022-10-16T07:50:41;101224.53;;;14.60;100.00
9853;BME280;4965;43.238;27.864;2022-10-16T07:53:10;101215.19;;;14.45;100.00
9853;BME280;4965;43.238;27.864;2022-10-16T07:55:38;101257.16;;;14.41;100.00
9853;BME280;4965;43.238;27.864;2022-10-16T07:58:06;101243.94;;;14.71;100.00
9853;BME280;4965;43.238;27.864;2022-10-16T08:00:35;101249.91;;;14.85;100.00
9853;BME280;4965;43.238;27.864;2022-10-16T08:03:02;101176.25;;;14.64;100.00
9853;BME280;4965;43.238;27.864;2022-10-16T08:05:32;101249.63;;;15.08;100.00
9853;BME280;4965;43.238;27.864;2022-10-16T08:08:00;101238.50;;;14.94;100.00
9853;BME280;4965;43.238;27.864;2022-10-16T08:10:29;101222.41;;;14.54;100.00
9853;BME280;4965;43.238;27.864;2022-10-16T08:12:57;101242.03;;;14.83;100.00
9853;BME280;4965;43.238;27.864;2022-10-16T08:15:24;101252.88;;;14.91;100.00
9853;BME280;4965;43.238;27.864;2022-10-16T08:17:55;101238.94;;;15.29;100.00
9853;BME280;4965;43.238;27.864;2022-10-16T08:20:22;101189.81;;;15.22;100.00
9853;BME280;4965;43.238;27.864;2022-10-16T08:22:49;101238.03;;;15.49;100.00
9853;BME280;4965;43.238;27.864;2022-10-16T08:25:16;101232.50;;;15.32;100.00
9853;BME280;4965;43.238;27.864;2022-10-16T08:28:04;101239.00;;;15.48;100.00
9853;BME280;4965;43.238;27.864;2022-10-16T08:30:31;101239.22;;;15.66;100.00
9853;BME280;4965;43.238;27.864;2022-10-16T08:32:59;101217.16;;;15.54;100.00
9853;BME280;4965;43.238;27.864;2022-10-16T08:35:26;101219.44;;;15.59;100.00
9853;BME280;4965;43.238;27.864;2022-10-16T08:37:53;101213.53;;;15.65;100.00
9853;BME280;4965;43.238;27.864;2022-10-16T08:40:21;101220.88;;;16.01;100.00
9853;BME280;4965;43.238;27.864;2022-10-16T08:43:00;101164.75;;;15.34;100.00
9853;BME280;4965;43.238;27.864;2022-10-16T08:45:38;101244.72;;;15.84;100.00
9853;BME280;4965;43.238;27.864;2022-10-16T08:48:17;101235.31;;;15.89;100.00
9853;BME280;4965;43.238;27.864;2022-10-16T08:50:45;101192.53;;;15.41;100.00
9853;BME280;4965;43.238;27.864;2022-10-16T08:53:17;101275.88;;;15.93;100.00
9853;BME280;4965;43.238;27.864;2022-10-16T08:55:50;101250.84;;;15.65;100.00
9853;BME280;4965;43.238;27.864;2022-10-16T08:58:19;101257.34;;;15.82;100.00
9853;BME280;4965;43.238;27.864;2022-10-16T09:00:51;101278.28;;;15.96;100.00
9853;BME280;4965;43.238;27.864;2022-10-16T09:03:40;101253.16;;;16.08;100.00
9853;BME280;4965;43.238;27.864;2022-10-16T09:06:29;101243.91;;;16.12;99.19
9853;BME280;4965;43.238;27.864;2022-10-16T09:09:11;101233.81;;;16.15;97.88
9853;BME280;4965;43.238;27.864;2022-10-16T09:11:47;101255.56;;;16.20;97.68
9853;BME280;4965;43.238;27.864;2022-10-16T09:14:32;101265.97;;;16.14;96.34
9853;BME280;4965;43.238;27.864;2022-10-16T09:17:18;101261.59;;;16.23;96.41
9853;BME280;4965;43.238;27.864;2022-10-16T09:19:53;101267.22;;;16.19;96.57
9853;BME280;4965;43.238;27.864;2022-10-16T09:22:26;101258.81;;;16.43;95.19
9853;BME280;4965;43.238;27.864;2022-10-16T09:24:54;101261.47;;;16.34;95.70
9853;BME280;4965;43.238;27.864;2022-10-16T09:27:22;101271.72;;;16.29;95.18
9853;BME280;4965;43.238;27.864;2022-10-16T09:29:49;101259.22;;;16.29;95.55
9853;BME280;4965;43.238;27.864;2022-10-16T09:32:19;101245.19;;;16.27;95.20
9853;BME280;4965;43.238;27.864;2022-10-16T09:34:49;101259.94;;;16.41;95.81
9853;BME280;4965;43.238;27.864;2022-10-16T09:37:19;101253.19;;;16.37;94.13
9853;BME280;4965;43.238;27.864;2022-10-16T09:39:48;101256.56;;;16.67;91.76
9853;BME280;4965;43.238;27.864;2022-10-16T09:42:17;101264.41;;;16.69;91.17
9853;BME280;4965;43.238;27.864;2022-10-16T09:44:47;101262.13;;;16.93;90.13
9853;BME280;4965;43.238;27.864;2022-10-16T09:47:19;101255.38;;;16.89;89.01
9853;BME280;4965;43.238;27.864;2022-10-16T09:49:51;101242.63;;;16.83;89.30
9853;BME280;4965;43.238;27.864;2022-10-16T09:52:18;101230.56;;;16.70;90.10
9853;BME280;4965;43.238;27.864;2022-10-16T09:54:50;101257.56;;;17.13;88.70
9853;BME280;4965;43.238;27.864;2022-10-16T09:57:17;101233.66;;;17.11;87.96
9853;BME280;4965;43.238;27.864;2022-10-16T09:59:48;101229.22;;;17.02;88.90
9853;BME280;4965;43.238;27.864;2022-10-16T10:02:19;101234.69;;;17.10;87.32
9853;BME280;4965;43.238;27.864;2022-10-16T10:04:50;101243.06;;;17.15;84.15
9853;BME280;4965;43.238;27.864;2022-10-16T10:07:25;101229.38;;;17.28;83.86
9853;BME280;4965;43.238;27.864;2022-10-16T10:09:53;101252.91;;;17.52;83.15
9853;BME280;4965;43.238;27.864;2022-10-16T10:12:24;101267.22;;;17.33;84.83
9853;BME280;4965;43.238;27.864;2022-10-16T10:14:52;101245.56;;;17.54;83.43
9853;BME280;4965;43.238;27.864;2022-10-16T10:17:22;101256.06;;;17.38;83.47
9853;BME280;4965;43.238;27.864;2022-10-16T10:19:52;101249.25;;;17.53;82.67
9853;BME280;4965;43.238;27.864;2022-10-16T10:22:29;101239.84;;;17.49;83.83
9853;BME280;4965;43.238;27.864;2022-10-16T10:25:00;101247.91;;;17.39;82.75
9853;BME280;4965;43.238;27.864;2022-10-16T10:27:42;101258.50;;;17.68;78.84
9853;BME280;4965;43.238;27.864;2022-10-16T10:30:17;101251.25;;;17.78;80.47
9853;BME280;4965;43.238;27.864;2022-10-16T10:32:55;101244.50;;;17.74;80.49
9853;BME280;4965;43.238;27.864;2022-10-16T10:35:30;101249.44;;;17.69;78.97
9853;BME280;4965;43.238;27.864;2022-10-16T10:38:09;101218.28;;;17.50;78.03
9853;BME280;4965;43.238;27.864;2022-10-16T10:40:45;101247.22;;;17.37;80.19
9853;BME280;4965;43.238;27.864;2022-10-16T10:43:27;101246.75;;;17.42;79.91
9853;BME280;4965;43.238;27.864;2022-10-16T10:46:00;101246.63;;;17.43;80.21
9853;BME280;4965;43.238;27.864;2022-10-16T10:48:48;101272.66;;;17.41;79.08
9853;BME280;4965;43.238;27.864;2022-10-16T10:51:24;101237.34;;;17.10;79.35
9853;BME280;4965;43.238;27.864;2022-10-16T10:54:05;101242.44;;;17.31;78.36
9853;BME280;4965;43.238;27.864;2022-10-16T10:56:44;101247.34;;;17.36;78.05
9853;BME280;4965;43.238;27.864;2022-10-16T11:02:10;101163.72;;;17.26;76.92
9853;BME280;4965;43.238;27.864;2022-10-16T11:07:40;101231.41;;;17.44;76.24
9853;BME280;4965;43.238;27.864;2022-10-16T11:10:14;101221.50;;;17.27;77.48
9853;BME280;4965;43.238;27.864;2022-10-16T11:12:47;101216.59;;;17.59;76.77
9853;BME280;4965;43.238;27.864;2022-10-16T11:15:20;101229.41;;;17.55;76.53
9853;BME280;4965;43.238;27.864;2022-10-16T11:17:52;101239.91;;;17.67;76.15
9853;BME280;4965;43.238;27.864;2022-10-16T11:20:26;101223.41;;;17.71;76.69
9853;BME280;4965;43.238;27.864;2022-10-16T11:22:56;101227.56;;;17.56;77.58
9853;BME280;4965;43.238;27.864;2022-10-16T11:25:27;101213.91;;;17.59;75.53
9853;BME280;4965;43.238;27.864;2022-10-16T11:27:57;101248.88;;;17.75;75.38
9853;BME280;4965;43.238;27.864;2022-10-16T11:30:27;101243.75;;;17.82;74.11
9853;BME280;4965;43.238;27.864;2022-10-16T11:33:05;101198.09;;;17.11;75.49
9853;BME280;4965;43.238;27.864;2022-10-16T11:35:44;101237.34;;;17.38;76.79
9853;BME280;4965;43.238;27.864;2022-10-16T11:38:18;101241.88;;;17.37;77.41
9853;BME280;4965;43.238;27.864;2022-10-16T11:40:50;101243.59;;;17.56;76.18
9853;BME280;4965;43.238;27.864;2022-10-16T11:43:22;101232.50;;;17.60;76.38
9853;BME280;4965;43.238;27.864;2022-10-16T11:45:54;101243.03;;;17.62;73.44
9853;BME280;4965;43.238;27.864;2022-10-16T11:48:27;101243.53;;;17.38;73.20
9853;BME280;4965;43.238;27.864;2022-10-16T11:51:05;101250.97;;;17.44;73.28
9853;BME280;4965;43.238;27.864;2022-10-16T11:53:42;101211.25;;;17.49;71.96
9853;BME280;4965;43.238;27.864;2022-10-16T11:56:19;101233.75;;;17.56;72.08
9853;BME280;4965;43.238;27.864;2022-10-16T11:58:53;101216.91;;;17.46;73.94
9853;BME280;4965;43.238;27.864;2022-10-16T12:01:27;101238.47;;;17.72;74.50
9853;BME280;4965;43.238;27.864;2022-10-16T12:04:06;101207.38;;;17.71;74.51
9853;BME280;4965;43.238;27.864;2022-10-16T12:06:44;101230.63;;;17.88;75.04
9853;BME280;4965;43.238;27.864;2022-10-16T12:09:20;101238.31;;;17.74;74.09
9853;BME280;4965;43.238;27.864;2022-10-16T12:11:49;101253.16;;;17.68;73.57
9853;BME280;4965;43.238;27.864;2022-10-16T12:14:32;101242.44;;;17.68;73.24
9853;BME280;4965;43.238;27.864;2022-10-16T12:17:02;101229.13;;;17.58;73.79
9853;BME280;4965;43.238;27.864;2022-10-16T12:19:31;101232.31;;;17.35;73.41
9853;BME280;4965;43.238;27.864;2022-10-16T12:22:01;101247.69;;;17.23;75.04
9853;BME280;4965;43.238;27.864;2022-10-16T12:24:34;101246.09;;;17.30;75.89
9853;BME280;4965;43.238;27.864;2022-10-16T12:27:04;101258.00;;;17.45;76.09
9853;BME280;4965;43.238;27.864;2022-10-16T12:29:36;101243.88;;;17.63;75.82
9853;BME280;4965;43.238;27.864;2022-10-16T12:32:05;101212.09;;;17.50;74.46
9853;BME280;4965;43.238;27.864;2022-10-16T12:34:47;101243.22;;;17.78;71.27
9853;BME280;4965;43.238;27.864;2022-10-16T12:37:21;101249.19;;;17.72;71.63
9853;BME280;4965;43.238;27.864;2022-10-16T12:39:50;101260.03;;;17.88;71.09
9853;BME280;4965;43.238;27.864;2022-10-16T12:42:33;101251.44;;;17.67;72.56
9853;BME280;4965;43.238;27.864;2022-10-16T12:45:01;101260.41;;;17.39;73.52
9853;BME280;4965;43.238;27.864;2022-10-16T12:47:48;101274.81;;;17.65;74.09
9853;BME280;4965;43.238;27.864;2022-10-16T12:50:37;101277.84;;;17.80;73.26
9853;BME280;4965;43.238;27.864;2022-10-16T12:53:18;101267.28;;;17.78;71.78
9853;BME280;4965;43.238;27.864;2022-10-16T12:55:55;101261.00;;;17.70;70.90
9853;BME280;4965;43.238;27.864;2022-10-16T12:58:45;101275.34;;;17.69;71.71
9853;BME280;4965;43.238;27.864;2022-10-16T13:01:34;101277.16;;;17.41;73.63
9853;BME280;4965;43.238;27.864;2022-10-16T13:04:20;101258.16;;;17.44;73.73
9853;BME280;4965;43.238;27.864;2022-10-16T13:06:54;101249.84;;;17.47;73.65
9853;BME280;4965;43.238;27.864;2022-10-16T13:09:35;101276.53;;;17.56;72.92
9853;BME280;4965;43.238;27.864;2022-10-16T13:12:23;101205.44;;;17.36;72.90
9853;BME280;4965;43.238;27.864;2022-10-16T13:15:22;101268.78;;;17.63;72.34
9853;BME280;4965;43.238;27.864;2022-10-16T13:17:58;101263.81;;;17.31;72.95
9853;BME280;4965;43.238;27.864;2022-10-16T13:20:32;101268.88;;;17.34;73.11
9853;BME280;4965;43.238;27.864;2022-10-16T13:23:06;101279.00;;;17.40;73.49